createdAt,value
2018-05-09T00:02:03.842Z,2.77
2018-05-09T00:04:30.079Z,2.90
2018-05-09T00:06:56.321Z,2.70
2018-05-09T00:09:23.297Z,2.60
2018-05-09T00:11:49.528Z,2.50
2018-05-09T00:14:15.789Z,2.70
2018-05-09T00:16:42.054Z,2.70
2018-05-09T00:19:08.329Z,2.80
2018-05-09T00:21:34.551Z,2.77
2018-05-09T00:24:00.790Z,3.00
2018-05-09T00:26:27.038Z,2.77
2018-05-09T00:28:53.259Z,2.70
2018-05-09T00:31:19.472Z,2.80
2018-05-09T00:33:45.692Z,3.07
2018-05-09T00:36:11.929Z,2.90
2018-05-09T00:38:39.158Z,2.90
2018-05-09T00:41:05.364Z,3.10
2018-05-09T00:43:31.604Z,3.10
2018-05-09T00:45:57.840Z,2.73
2018-05-09T00:48:24.122Z,3.10
2018-05-09T00:50:50.367Z,3.33
2018-05-09T00:53:16.671Z,2.73
2018-05-09T00:55:42.969Z,2.90
2018-05-09T00:58:09.472Z,2.97
2018-05-09T01:00:36.442Z,3.53
2018-05-09T01:03:03.503Z,3.20
2018-05-09T01:05:29.792Z,3.27
2018-05-09T01:07:56.763Z,3.20
2018-05-09T01:10:23.120Z,3.03
2018-05-09T01:12:49.389Z,3.40
2018-05-09T01:15:16.435Z,3.17
2018-05-09T01:17:43.424Z,3.30
2018-05-09T01:20:09.665Z,3.40
2018-05-09T01:22:35.930Z,3.30
2018-05-09T01:25:02.205Z,3.00
2018-05-09T01:27:28.464Z,3.40
2018-05-09T01:29:54.712Z,3.23
2018-05-09T01:32:21.020Z,3.50
2018-05-09T01:34:47.291Z,3.50
2018-05-09T01:37:13.596Z,3.43
2018-05-09T01:39:40.597Z,3.27
2018-05-09T01:42:06.847Z,2.97
2018-05-09T01:44:33.868Z,3.57
2018-05-09T01:47:00.092Z,3.90
2018-05-09T01:49:26.363Z,3.80
2018-05-09T01:51:52.670Z,3.60
2018-05-09T01:54:18.933Z,4.00
2018-05-09T01:56:45.187Z,3.60
2018-05-09T01:59:11.456Z,3.60
2018-05-09T02:01:37.728Z,3.90
2018-05-09T02:04:04.765Z,3.70
2018-05-09T02:06:31.058Z,3.80
2018-05-09T02:08:57.387Z,4.33
2018-05-09T02:11:23.654Z,3.80
2018-05-09T02:13:50.095Z,4.00
2018-05-09T02:16:16.340Z,3.77
2018-05-09T02:18:42.610Z,3.80
2018-05-09T02:21:08.888Z,3.80
2018-05-09T02:23:35.167Z,3.90
2018-05-09T02:26:01.866Z,4.00
2018-05-09T02:28:28.117Z,4.27
2018-05-09T02:30:54.385Z,3.87
2018-05-09T02:33:20.656Z,3.90
2018-05-09T02:35:46.916Z,3.90
2018-05-09T02:38:13.198Z,4.27
2018-05-09T02:40:40.214Z,4.17
2018-05-09T02:43:06.433Z,4.17
2018-05-09T02:45:33.236Z,4.27
2018-05-09T02:47:59.580Z,4.07
2018-05-09T02:50:25.853Z,4.40
2018-05-09T02:52:52.813Z,4.30
2018-05-09T02:55:19.950Z,4.23
2018-05-09T02:57:46.152Z,4.67
2018-05-09T03:00:13.137Z,4.33
2018-05-09T03:02:39.408Z,4.30
2018-05-09T03:05:05.760Z,4.73
2018-05-09T03:07:32.069Z,4.80
2018-05-09T03:09:58.357Z,4.57
2018-05-09T03:12:25.349Z,4.40
2018-05-09T03:14:51.585Z,4.70
2018-05-09T03:17:17.957Z,4.47
2018-05-09T03:19:44.216Z,4.70
2018-05-09T03:22:10.521Z,4.60
2018-05-09T03:24:36.839Z,4.23
2018-05-09T03:27:03.847Z,5.30
2018-05-09T03:29:30.106Z,4.57
2018-05-09T03:31:57.087Z,4.80
2018-05-09T03:34:23.334Z,4.60
2018-05-09T03:36:49.611Z,4.43
2018-05-09T03:39:16.624Z,4.70
2018-05-09T03:41:42.894Z,4.80
2018-05-09T03:44:09.197Z,4.67
2018-05-09T03:46:36.242Z,4.63
2018-05-09T03:49:02.493Z,5.13
2018-05-09T03:51:28.761Z,4.67
2018-05-09T03:53:55.063Z,4.40
2018-05-09T03:56:21.324Z,4.77
2018-05-09T03:58:47.557Z,4.97
2018-05-09T04:01:13.824Z,5.00
2018-05-09T04:03:52.340Z,4.83
2018-05-09T04:06:30.950Z,5.03
2018-05-09T04:09:09.332Z,4.80
2018-05-09T04:11:35.539Z,4.87
2018-05-09T04:14:01.781Z,5.00
2018-05-09T04:16:28.016Z,4.47
2018-05-09T04:18:54.249Z,4.60
2018-05-09T04:21:20.501Z,4.20
2018-05-09T04:23:46.733Z,4.43
2018-05-09T04:26:12.961Z,4.10
2018-05-09T04:28:39.195Z,4.40
2018-05-09T04:31:05.439Z,4.80
2018-05-09T04:33:32.391Z,4.60
2018-05-09T04:35:58.642Z,4.10
2018-05-09T04:38:24.885Z,4.53
2018-05-09T04:40:51.169Z,4.20
2018-05-09T04:43:17.462Z,4.53
2018-05-09T04:45:43.783Z,4.33
2018-05-09T04:48:10.037Z,4.23
2018-05-09T04:50:37.017Z,4.30
2018-05-09T04:53:03.268Z,3.97
2018-05-09T04:55:29.610Z,4.30
2018-05-09T04:57:55.748Z,4.17
2018-05-09T05:00:22.039Z,3.97
2018-05-09T05:02:48.322Z,3.53
2018-05-09T05:05:14.564Z,3.70
2018-05-09T05:07:40.808Z,3.93
2018-05-09T05:10:07.768Z,3.77
2018-05-09T05:12:34.014Z,3.83
2018-05-09T05:15:00.283Z,3.90
2018-05-09T05:17:26.548Z,4.40
2018-05-09T05:19:52.853Z,4.33
2018-05-09T05:22:19.878Z,3.97
2018-05-09T05:24:46.081Z,3.80
2018-05-09T05:27:12.312Z,4.37
2018-05-09T05:29:38.516Z,4.47
2018-05-09T05:32:04.724Z,4.50
2018-05-09T05:34:31.663Z,4.40
2018-05-09T05:36:58.612Z,4.00
2018-05-09T05:39:25.557Z,4.03
2018-05-09T05:41:52.511Z,4.57
2018-05-09T05:44:18.720Z,4.23
2018-05-09T05:46:44.955Z,4.50
2018-05-09T05:49:11.940Z,4.70
2018-05-09T05:51:38.166Z,4.60
2018-05-09T05:54:04.425Z,4.47
2018-05-09T05:56:30.670Z,4.40
2018-05-09T05:58:56.927Z,4.37
2018-05-09T06:01:23.172Z,4.20
2018-05-09T06:03:49.394Z,5.00
2018-05-09T06:06:16.873Z,4.70
2018-05-09T06:08:44.648Z,4.60
2018-05-09T06:11:10.862Z,4.03
2018-05-09T06:13:37.885Z,4.27
2018-05-09T06:16:04.173Z,4.47
2018-05-09T06:18:31.143Z,3.93
2018-05-09T06:20:58.121Z,4.23
2018-05-09T06:23:24.370Z,4.30
2018-05-09T06:25:50.572Z,4.27
2018-05-09T06:28:16.790Z,4.37
2018-05-09T06:30:43.003Z,4.37
2018-05-09T06:33:09.963Z,4.07
2018-05-09T06:35:36.235Z,3.90
2018-05-09T06:38:02.445Z,4.30
2018-05-09T06:40:28.642Z,4.10
2018-05-09T06:42:54.854Z,3.87
2018-05-09T06:45:21.859Z,3.90
2018-05-09T06:47:48.201Z,4.10
2018-05-09T06:50:14.433Z,3.83
2018-05-09T06:52:40.761Z,3.90
2018-05-09T06:55:06.970Z,3.93
2018-05-09T06:57:33.179Z,4.10
2018-05-09T06:59:59.420Z,3.70
2018-05-09T07:02:25.681Z,3.87
2018-05-09T07:04:52.636Z,4.13
2018-05-09T07:07:19.606Z,4.17
2018-05-09T07:09:45.808Z,3.90
2018-05-09T07:12:12.870Z,3.90
2018-05-09T07:14:39.080Z,4.27
2018-05-09T07:17:06.069Z,4.20
2018-05-09T07:19:32.287Z,4.40
2018-05-09T07:21:58.521Z,4.00
2018-05-09T07:24:24.807Z,3.80
2018-05-09T07:26:51.833Z,3.60
2018-05-09T07:29:18.137Z,3.80
2018-05-09T07:31:44.485Z,3.70
2018-05-09T07:34:10.891Z,3.80
2018-05-09T07:36:37.802Z,3.62
2018-05-09T07:39:06.036Z,3.67
2018-05-09T07:41:33.584Z,3.80
2018-05-09T07:44:00.413Z,4.25
2018-05-09T07:46:26.680Z,3.97
2018-05-09T07:48:52.926Z,4.12
2018-05-09T07:51:19.980Z,4.20
2018-05-09T07:53:46.253Z,4.30
2018-05-09T07:56:12.452Z,4.62
2018-05-09T07:58:38.694Z,4.00
2018-05-09T08:01:04.928Z,3.80
2018-05-09T08:03:31.208Z,3.90
2018-05-09T08:05:57.435Z,3.55
2018-05-09T08:08:24.620Z,3.72
2018-05-09T08:10:50.872Z,3.83
2018-05-09T08:13:17.105Z,3.97
2018-05-09T08:15:43.589Z,4.40
2018-05-09T08:18:10.608Z,4.47
2018-05-09T08:20:36.841Z,4.47
2018-05-09T08:23:03.113Z,3.62
2018-05-09T08:25:29.314Z,4.07
2018-05-09T08:27:56.385Z,4.10
2018-05-09T08:30:22.844Z,4.00
2018-05-09T08:32:49.770Z,4.10
2018-05-09T08:35:15.975Z,4.55
2018-05-09T08:37:42.981Z,4.10
2018-05-09T08:40:09.256Z,4.25
2018-05-09T08:42:35.488Z,4.22
2018-05-09T08:45:01.808Z,4.10
2018-05-09T08:47:28.049Z,3.97
2018-05-09T08:49:54.280Z,4.18
2018-05-09T08:52:20.525Z,3.87
2018-05-09T08:54:46.761Z,4.25
2018-05-09T08:57:12.990Z,4.32
2018-05-09T08:59:40.035Z,3.62
2018-05-09T09:02:06.945Z,4.28
2018-05-09T09:04:33.232Z,4.15
2018-05-09T09:06:59.506Z,3.33
2018-05-09T09:09:26.002Z,3.85
2018-05-09T09:11:52.521Z,3.62
2018-05-09T09:14:18.745Z,3.70
2018-05-09T09:16:45.003Z,3.58
2018-05-09T09:19:11.977Z,3.97
2018-05-09T09:21:38.225Z,3.67
2018-05-09T09:24:04.502Z,3.60
2018-05-09T09:26:31.502Z,3.83
2018-05-09T09:28:57.745Z,3.45
2018-05-09T09:31:23.978Z,3.42
2018-05-09T09:33:50.349Z,3.55
2018-05-09T09:36:16.615Z,3.70
2018-05-09T09:38:42.843Z,3.28
2018-05-09T09:41:09.066Z,3.65
2018-05-09T09:43:35.315Z,3.45
2018-05-09T09:46:01.756Z,3.78
2018-05-09T09:48:27.988Z,3.45
2018-05-09T09:50:54.188Z,3.60
2018-05-09T09:53:20.434Z,3.75
2018-05-09T09:55:46.685Z,3.30
2018-05-09T09:58:12.888Z,3.80
2018-05-09T10:00:39.191Z,3.90
2018-05-09T10:03:05.396Z,3.47
2018-05-09T10:05:31.673Z,3.67
2018-05-09T10:07:57.914Z,3.45
2018-05-09T10:10:24.887Z,3.47
2018-05-09T10:12:51.831Z,3.47
2018-05-09T10:15:18.832Z,3.42
2018-05-09T10:17:45.094Z,3.40
2018-05-09T10:20:11.346Z,3.20
2018-05-09T10:22:37.587Z,3.28
2018-05-09T10:25:03.890Z,3.35
2018-05-09T10:27:30.129Z,3.60
2018-05-09T10:29:56.340Z,3.00
2018-05-09T10:32:23.333Z,3.05
2018-05-09T10:34:49.572Z,3.50
2018-05-09T10:39:56.812Z,3.25
2018-05-09T10:42:23.034Z,3.60
2018-05-09T10:44:49.265Z,3.30
2018-05-09T10:47:16.255Z,3.10
2018-05-09T10:49:42.489Z,3.30
2018-05-09T10:52:08.736Z,3.53
2018-05-09T10:54:35.011Z,3.15
2018-05-09T10:57:01.986Z,4.28
2018-05-09T10:59:28.700Z,3.37
2018-05-09T11:01:54.980Z,3.25
2018-05-09T11:04:21.247Z,3.80
2018-05-09T11:06:48.216Z,3.17
2018-05-09T11:09:14.441Z,3.87
2018-05-09T11:11:40.671Z,3.97
2018-05-09T11:14:06.894Z,4.28
2018-05-09T11:16:33.124Z,5.32
2018-05-09T11:18:59.564Z,4.18
2018-05-09T11:21:25.828Z,4.07
2018-05-09T11:25:19.497Z,3.42
2018-05-09T11:27:45.792Z,3.92
2018-05-09T11:30:12.028Z,3.30
2018-05-09T11:32:38.566Z,3.35
2018-05-09T11:35:04.841Z,3.53
2018-05-09T11:37:31.159Z,3.75
2018-05-09T11:39:58.092Z,3.60
2018-05-09T11:42:25.192Z,4.03
2018-05-09T11:44:51.504Z,3.03
2018-05-09T11:47:17.713Z,3.40
2018-05-09T11:49:43.929Z,3.45
2018-05-09T11:52:10.216Z,3.35
2018-05-09T11:54:36.461Z,3.15
2018-05-09T11:57:03.471Z,3.60
2018-05-09T11:59:30.505Z,3.60
2018-05-09T12:01:57.532Z,3.20
2018-05-09T12:04:24.640Z,3.43
2018-05-09T12:06:51.439Z,3.30
2018-05-09T12:09:18.456Z,3.30
2018-05-09T12:11:44.704Z,3.33
2018-05-09T12:14:10.979Z,3.23
2018-05-09T12:16:37.198Z,4.00
2018-05-09T12:19:03.431Z,3.37
2018-05-09T12:21:29.823Z,3.60
2018-05-09T12:23:56.846Z,3.70
2018-05-09T12:26:23.823Z,3.93
2018-05-09T12:28:50.974Z,4.10
2018-05-09T12:31:17.987Z,3.80
2018-05-09T12:33:44.281Z,3.30
2018-05-09T12:36:10.539Z,3.70
2018-05-09T12:38:37.229Z,4.33
2018-05-09T12:41:04.237Z,3.50
2018-05-09T12:43:30.704Z,4.00
2018-05-09T12:45:57.130Z,3.43
2018-05-09T12:48:24.102Z,3.67
2018-05-09T12:50:50.353Z,3.53
2018-05-09T12:53:16.596Z,3.50
2018-05-09T12:55:42.889Z,3.63
2018-05-09T12:58:09.131Z,3.57
2018-05-09T13:00:35.597Z,3.30
2018-05-09T13:03:02.637Z,3.07
2018-05-09T13:05:29.648Z,3.40
2018-05-09T13:07:55.890Z,3.30
2018-05-09T13:10:22.164Z,3.37
2018-05-09T13:12:49.133Z,3.20
2018-05-09T13:15:15.356Z,3.40
2018-05-09T13:17:41.643Z,3.20
2018-05-09T13:20:07.936Z,3.10
2018-05-09T13:22:34.174Z,3.33
2018-05-09T13:25:00.412Z,3.37
2018-05-09T13:27:27.978Z,3.10
2018-05-09T13:29:54.218Z,2.97
2018-05-09T13:32:20.448Z,3.57
2018-05-09T13:34:46.713Z,3.33
2018-05-09T13:37:13.011Z,3.10
2018-05-09T13:39:39.285Z,3.10
2018-05-09T13:42:05.561Z,3.43
2018-05-09T13:44:31.795Z,3.13
2018-05-09T13:46:58.134Z,3.40
2018-05-09T13:49:24.749Z,3.77
2018-05-09T13:51:51.778Z,3.33
2018-05-09T13:54:18.842Z,3.47
2018-05-09T13:56:45.081Z,3.63
2018-05-09T13:59:11.385Z,3.30
2018-05-09T14:01:37.656Z,3.43
2018-05-09T14:04:03.920Z,3.43
2018-05-09T14:06:30.186Z,3.47
2018-05-09T14:08:56.433Z,3.73
2018-05-09T14:11:22.651Z,3.20
2018-05-09T14:13:48.888Z,3.50
2018-05-09T14:16:15.884Z,3.30
2018-05-09T14:18:42.184Z,3.10
2018-05-09T14:21:09.166Z,3.67
2018-05-09T14:23:35.443Z,3.30
2018-05-09T14:26:02.441Z,3.47
2018-05-09T14:28:28.676Z,3.13
2018-05-09T14:30:54.965Z,3.73
2018-05-09T14:33:21.241Z,3.70
2018-05-09T14:35:47.487Z,4.00
2018-05-09T14:38:13.737Z,4.20
2018-05-09T14:40:40.760Z,3.90
2018-05-09T14:43:06.942Z,3.90
2018-05-09T14:45:33.299Z,3.73
2018-05-09T14:47:59.531Z,4.20
2018-05-09T14:50:25.768Z,4.27
2018-05-09T14:52:52.792Z,4.20
2018-05-09T14:55:18.999Z,4.20
2018-05-09T14:57:46.073Z,4.50
2018-05-09T15:00:13.229Z,4.23
2018-05-09T15:02:39.505Z,4.60
2018-05-09T15:05:06.486Z,4.77
2018-05-09T15:07:32.703Z,4.40
2018-05-09T15:09:58.948Z,4.70
2018-05-09T15:12:25.223Z,4.27
2018-05-09T15:14:52.333Z,4.40
2018-05-09T15:17:18.864Z,4.43
2018-05-09T15:19:45.117Z,3.80
2018-05-09T15:22:11.371Z,3.63
2018-05-09T15:24:38.332Z,4.00
2018-05-09T15:27:04.609Z,3.63
2018-05-09T15:29:30.841Z,4.03
2018-05-09T15:31:57.095Z,3.63
2018-05-09T15:34:24.076Z,4.50
2018-05-09T15:36:50.335Z,3.73
2018-05-09T15:39:16.576Z,4.07
2018-05-09T15:41:42.793Z,3.63
2018-05-09T15:44:09.075Z,3.87
2018-05-09T15:46:35.332Z,3.70
2018-05-09T15:49:01.591Z,3.70
2018-05-09T15:51:28.595Z,3.90
2018-05-09T15:53:54.836Z,3.80
2018-05-09T15:56:21.239Z,3.87
2018-05-09T15:58:47.465Z,4.00
2018-05-09T16:01:13.742Z,3.93
2018-05-09T16:03:39.995Z,4.20
2018-05-09T16:06:06.972Z,4.03
2018-05-09T16:08:33.220Z,3.90
2018-05-09T16:10:59.428Z,3.93
2018-05-09T16:13:25.696Z,4.00
2018-05-09T16:15:51.893Z,3.80
2018-05-09T16:18:18.164Z,4.30
2018-05-09T16:20:45.168Z,4.00
2018-05-09T16:23:11.441Z,4.40
2018-05-09T16:25:39.285Z,4.10
2018-05-09T16:28:05.488Z,4.70
2018-05-09T16:30:31.792Z,4.47
2018-05-09T16:32:58.741Z,4.60
2018-05-09T16:35:25.172Z,5.37
2018-05-09T16:37:51.436Z,4.80
2018-05-09T16:40:17.886Z,4.70
2018-05-09T16:42:44.169Z,4.50
2018-05-09T16:45:10.458Z,4.70
2018-05-09T16:47:36.736Z,4.67
2018-05-09T16:50:03.003Z,4.90
2018-05-09T16:52:29.222Z,4.70
2018-05-09T16:54:55.457Z,4.77
2018-05-09T16:57:21.721Z,4.90
2018-05-09T16:59:48.727Z,4.77
2018-05-09T17:02:15.020Z,5.37
2018-05-09T17:04:41.322Z,4.83
2018-05-09T17:07:08.276Z,4.70
2018-05-09T17:09:35.295Z,4.93
2018-05-09T17:12:01.569Z,4.80
2018-05-09T17:14:27.848Z,5.27
2018-05-09T17:16:54.199Z,5.33
2018-05-09T17:19:20.583Z,5.30
2018-05-09T17:22:05.464Z,5.53
2018-05-09T17:24:31.787Z,5.60
2018-05-09T17:26:58.011Z,6.00
2018-05-09T17:29:24.253Z,5.50
2018-05-09T17:31:50.527Z,5.47
2018-05-09T17:34:16.779Z,5.77
2018-05-09T17:36:43.076Z,5.60
2018-05-09T17:39:09.336Z,5.97
2018-05-09T17:41:35.619Z,5.37
2018-05-09T17:44:01.828Z,5.70
2018-05-09T17:46:28.133Z,5.43
2018-05-09T17:48:54.459Z,6.17
2018-05-09T17:51:20.693Z,5.90
2018-05-09T17:53:46.945Z,5.50
2018-05-09T17:56:13.471Z,6.43
2018-05-09T17:58:39.776Z,6.40
2018-05-09T18:01:06.041Z,5.60
2018-05-09T18:03:32.480Z,5.63
2018-05-09T18:05:59.467Z,5.60
2018-05-09T18:08:25.696Z,5.23
2018-05-09T18:10:52.196Z,5.20
2018-05-09T18:13:19.273Z,5.37
2018-05-09T18:15:45.601Z,4.93
2018-05-09T18:18:11.945Z,5.10
2018-05-09T18:20:38.171Z,5.20
2018-05-09T18:23:05.014Z,5.20
2018-05-09T18:25:31.536Z,5.23
2018-05-09T18:27:57.825Z,5.40
2018-05-09T18:30:24.097Z,5.40
2018-05-09T18:32:50.334Z,11.17
2018-05-09T18:35:16.559Z,6.97
2018-05-09T18:37:42.848Z,6.13
2018-05-09T18:40:09.181Z,5.67
2018-05-09T18:42:35.543Z,5.90
2018-05-09T18:45:01.873Z,5.60
2018-05-09T18:47:28.928Z,5.60
2018-05-09T18:49:55.192Z,5.90
2018-05-09T18:52:21.473Z,6.07
2018-05-09T18:54:47.687Z,5.63
2018-05-09T18:57:15.450Z,5.50
2018-05-09T18:59:41.792Z,5.40
2018-05-09T19:02:08.785Z,6.27
2018-05-09T19:04:35.163Z,5.93
2018-05-09T19:07:01.542Z,5.70
2018-05-09T19:09:27.849Z,5.53
2018-05-09T19:11:54.103Z,5.60
2018-05-09T19:14:20.636Z,5.23
2018-05-09T19:16:47.098Z,4.97
2018-05-09T19:19:13.429Z,4.80
2018-05-09T19:21:39.866Z,5.03
2018-05-09T19:24:06.923Z,4.97
2018-05-09T19:26:33.206Z,5.13
2018-05-09T19:28:59.570Z,5.03
2018-05-09T19:31:26.513Z,5.30
2018-05-09T19:33:52.751Z,9.27
2018-05-09T19:36:19.093Z,7.40
2018-05-09T19:38:45.448Z,8.07
2018-05-09T19:41:11.821Z,13.23
2018-05-09T19:43:38.072Z,11.10
2018-05-09T19:46:04.302Z,14.73
2018-05-09T19:48:30.587Z,16.33
2018-05-09T19:50:56.940Z,17.97
2018-05-09T19:53:23.180Z,12.00
2018-05-09T19:55:50.194Z,15.50
2018-05-09T19:58:16.682Z,16.43
2018-05-09T20:00:43.059Z,17.53
2018-05-09T20:03:09.347Z,17.33
2018-05-09T20:05:38.593Z,18.33
2018-05-09T20:08:11.136Z,19.50
2018-05-09T20:10:37.391Z,16.47
2018-05-09T20:13:03.678Z,17.97
2018-05-09T20:15:35.982Z,15.83
2018-05-09T20:18:03.045Z,15.43
2018-05-09T20:20:29.321Z,14.67
2018-05-09T20:22:55.585Z,15.40
2018-05-09T20:25:22.032Z,15.13
2018-05-09T20:27:48.354Z,15.07
2018-05-09T20:30:21.147Z,15.90
2018-05-09T20:32:48.204Z,15.47
2018-05-09T20:35:14.516Z,14.67
2018-05-09T20:37:40.818Z,14.17
2018-05-09T20:40:07.048Z,14.40
2018-05-09T20:42:33.293Z,15.80
2018-05-09T20:44:59.521Z,14.43
2018-05-09T20:47:25.927Z,15.53
2018-05-09T20:49:52.298Z,16.20
2018-05-09T20:52:20.051Z,15.87
2018-05-09T20:54:46.268Z,15.13
2018-05-09T20:57:12.529Z,15.03
2018-05-09T20:59:38.739Z,16.83
2018-05-09T21:02:05.006Z,16.30
2018-05-09T21:04:31.287Z,15.40
2018-05-09T21:07:00.166Z,17.03
2018-05-09T21:09:26.507Z,17.20
2018-05-09T21:12:04.884Z,16.97
2018-05-09T21:14:31.211Z,16.10
2018-05-09T21:16:57.470Z,18.47
2018-05-09T21:19:23.729Z,15.83
2018-05-09T21:21:50.788Z,17.63
2018-05-09T21:24:17.805Z,17.80
2018-05-09T21:26:44.958Z,17.90
2018-05-09T21:29:11.235Z,17.17
2018-05-09T21:31:37.513Z,19.27
2018-05-09T21:34:03.807Z,18.80
2018-05-09T21:36:30.137Z,18.47
2018-05-09T21:38:56.373Z,19.63
2018-05-09T21:41:22.637Z,18.70
2018-05-09T21:43:50.367Z,18.37
2018-05-09T21:46:16.612Z,17.90
2018-05-09T21:48:42.862Z,19.07
2018-05-09T21:51:09.071Z,19.00
2018-05-09T21:53:35.380Z,19.70
2018-05-09T21:56:03.403Z,19.40
2018-05-09T21:58:29.710Z,20.47
2018-05-09T22:00:55.958Z,20.10
2018-05-09T22:03:22.936Z,21.33
2018-05-09T22:05:49.209Z,19.93
2018-05-09T22:08:15.630Z,23.03
2018-05-09T22:10:41.986Z,23.90
2018-05-09T22:13:08.310Z,23.97
2018-05-09T22:15:34.596Z,23.10
2018-05-09T22:18:00.862Z,23.90
2018-05-09T22:20:27.133Z,24.47
2018-05-09T22:22:53.369Z,24.60
2018-05-09T22:25:19.655Z,24.47
2018-05-09T22:27:45.870Z,26.80
2018-05-09T22:30:12.099Z,27.57
2018-05-09T22:32:38.396Z,28.10
2018-05-09T22:35:04.693Z,27.97
2018-05-09T22:37:31.728Z,28.90
2018-05-09T22:39:58.729Z,29.97
2018-05-09T22:42:25.241Z,30.50
2018-05-09T22:44:53.834Z,30.60
2018-05-09T22:47:20.059Z,32.50
2018-05-09T22:49:46.301Z,33.10
2018-05-09T22:52:12.625Z,33.83
2018-05-09T22:54:38.861Z,35.13
2018-05-09T22:57:05.084Z,35.17
2018-05-09T22:59:31.324Z,36.03
2018-05-09T23:01:57.540Z,36.97
2018-05-09T23:04:23.791Z,36.90
2018-05-09T23:06:50.023Z,36.97
2018-05-09T23:09:16.345Z,37.37
2018-05-09T23:11:42.588Z,37.67
2018-05-09T23:14:09.564Z,37.80
2018-05-09T23:16:35.808Z,39.97
2018-05-09T23:19:02.058Z,38.53
2018-05-09T23:21:28.363Z,37.13
2018-05-09T23:23:54.696Z,38.57
2018-05-09T23:26:21.973Z,37.20
2018-05-09T23:28:48.250Z,35.83
2018-05-09T23:31:14.506Z,36.97
2018-05-09T23:33:40.727Z,36.97
2018-05-09T23:36:07.906Z,38.07
2018-05-09T23:38:34.161Z,37.53
2018-05-09T23:41:00.392Z,38.37
2018-05-09T23:43:28.100Z,37.47
2018-05-09T23:45:54.372Z,37.17
2018-05-09T23:48:20.935Z,37.37
2018-05-09T23:50:47.247Z,39.67
2018-05-09T23:53:13.469Z,37.37
2018-05-09T23:55:39.770Z,37.93
2018-05-09T23:58:06.707Z,37.30
